Rye Beach, New Hampshire
Current Conditions -  °F | °C
As of 7:43 AM on Thursday 23 Oct 2014 (Local Time) from KPSM Reporting Station
Moderate Rain Moderate Rain  
Wind Chill: 50°   Ceiling: 700
Heat Index: 50°   Visibility: 1.8mi
Dew Point: 46°   Wind: 22mph
Humidity: 87%   Direction: 10°N
Pressure: 29.69"   Gusts: 31mph
Location:  42.98°N, 70.76°W
Report Text: KPSM 231143Z 01019G27KT 1 7/8SM RA BR FEW002 OVC007 10/08 A2969 RMK AO2A
Loading
Personal Weather Stations






























Interactive Weather Map
Tropical Storm Tracking
New forecast layout! Learn more

10-Day Weather Forecast

Advertisements
Track Severe Weather on mobile